CFG178 EDDH-EDVK
Flight info
| Callsign | CFG178 |
|---|---|
| Flight time | 0h 36m |
| Altitude | 34000 |
| Route | IDEKO7G IDEKO N850 GISEM |
| Aircraft | A339/H-SADE1E2E3GHIJ3J5M1P2RWXY/LB2D1 |
Departure
| Time | 2026-04-22 14:59 |
|---|---|
| Airport | Hamburg Helmut Schmidt Airport (EDDH) |
Arrival
| Time | 2026-04-22 15:35 |
|---|---|
| Airport | Kassel Airport (EDVK) |
| Time | Latitude | Longitude | Altitude | Speed | Heading |
|---|---|---|---|---|---|
| 2026-04-22 14:27 | 53.63112 | 10.00358 | 54 ft | 0 kts | 86° |
| 2026-04-22 14:48 | 53.63112 | 10.00349 | 47 ft | 4 kts | 86° |
| 2026-04-22 14:48 | 53.63110 | 10.00304 | 48 ft | 4 kts | 86° |
| 2026-04-22 14:48 | 53.63109 | 10.00267 | 49 ft | 3 kts | 88° |
| 2026-04-22 14:49 | 53.63105 | 10.00239 | 49 ft | 4 kts | 139° |
| 2026-04-22 14:49 | 53.63120 | 10.00225 | 46 ft | 4 kts | 176° |
| 2026-04-22 14:49 | 53.63115 | 10.00225 | 46 ft | 1 kts | 176° |
| 2026-04-22 14:49 | 53.63114 | 10.00225 | 46 ft | 0 kts | 176° |
| 2026-04-22 14:57 | 53.63107 | 10.00226 | 48 ft | 4 kts | 176° |
| 2026-04-22 14:57 | 53.63039 | 10.00196 | 51 ft | 13 kts | 211° |
| 2026-04-22 14:57 | 53.62948 | 10.00101 | 49 ft | 17 kts | 212° |
| 2026-04-22 14:57 | 53.62876 | 10.00028 | 48 ft | 12 kts | 217° |
| 2026-04-22 14:58 | 53.62825 | 9.99900 | 49 ft | 13 kts | 244° |
| 2026-04-22 14:58 | 53.62845 | 9.99771 | 51 ft | 10 kts | 319° |
| 2026-04-22 14:58 | 53.62877 | 9.99734 | 51 ft | 0 kts | 326° |
| 2026-04-22 14:59 | 53.62880 | 9.99732 | 51 ft | 6 kts | 326° |
| 2026-04-22 14:59 | 53.63230 | 9.99422 | 46 ft | 107 kts | 333° |
| 2026-04-22 14:59 | 53.64108 | 9.98686 | 363 ft | 156 kts | 334° |
| 2026-04-22 14:59 | 53.65093 | 9.97885 | 1393 ft | 159 kts | 333° |
| 2026-04-22 15:00 | 53.66108 | 9.97025 | 2434 ft | 172 kts | 331° |
| 2026-04-22 15:00 | 53.67201 | 9.96061 | 3414 ft | 181 kts | 331° |
| 2026-04-22 15:00 | 53.68321 | 9.95015 | 4411 ft | 186 kts | 331° |
| 2026-04-22 15:00 | 53.69524 | 9.93899 | 4864 ft | 208 kts | 334° |
| 2026-04-22 15:01 | 53.70742 | 9.92543 | 4984 ft | 214 kts | 316° |
| 2026-04-22 15:01 | 53.71455 | 9.90335 | 5000 ft | 220 kts | 286° |
| 2026-04-22 15:01 | 53.71399 | 9.87750 | 5005 ft | 226 kts | 258° |
| 2026-04-22 15:01 | 53.70856 | 9.85121 | 5135 ft | 250 kts | 251° |
| 2026-04-22 15:02 | 53.70183 | 9.82308 | 5660 ft | 262 kts | 251° |
| 2026-04-22 15:02 | 53.69512 | 9.79378 | 6211 ft | 275 kts | 252° |
| 2026-04-22 15:02 | 53.68863 | 9.76332 | 7051 ft | 277 kts | 253° |
| 2026-04-22 15:02 | 53.68229 | 9.73228 | 7867 ft | 281 kts | 253° |
| 2026-04-22 15:03 | 53.67612 | 9.70116 | 8688 ft | 286 kts | 254° |
| 2026-04-22 15:03 | 53.66985 | 9.66919 | 9538 ft | 289 kts | 254° |
| 2026-04-22 15:03 | 53.66350 | 9.63662 | 10118 ft | 294 kts | 254° |
| 2026-04-22 15:03 | 53.65520 | 9.60462 | 10599 ft | 306 kts | 238° |
| 2026-04-22 15:04 | 53.63986 | 9.57798 | 10891 ft | 331 kts | 216° |
| 2026-04-22 15:04 | 53.61826 | 9.56154 | 11202 ft | 351 kts | 193° |
| 2026-04-22 15:04 | 53.59383 | 9.55745 | 11891 ft | 355 kts | 180° |
| 2026-04-22 15:04 | 53.56900 | 9.55710 | 12618 ft | 359 kts | 179° |
| 2026-04-22 15:05 | 53.54392 | 9.55591 | 13350 ft | 363 kts | 181° |
| 2026-04-22 15:05 | 53.51858 | 9.55301 | 14073 ft | 367 kts | 184° |
| 2026-04-22 15:05 | 53.49302 | 9.54881 | 14720 ft | 371 kts | 185° |
| 2026-04-22 15:05 | 53.46728 | 9.54387 | 15363 ft | 375 kts | 186° |
| 2026-04-22 15:06 | 53.44126 | 9.53860 | 15998 ft | 378 kts | 186° |
| 2026-04-22 15:06 | 53.41502 | 9.53327 | 16639 ft | 382 kts | 186° |
| 2026-04-22 15:06 | 53.38848 | 9.52794 | 17267 ft | 386 kts | 186° |
| 2026-04-22 15:06 | 53.36166 | 9.52259 | 17887 ft | 390 kts | 186° |
| 2026-04-22 15:07 | 53.33461 | 9.51722 | 18524 ft | 393 kts | 185° |
| 2026-04-22 15:07 | 53.30732 | 9.51185 | 19095 ft | 396 kts | 185° |
| 2026-04-22 15:07 | 53.27985 | 9.50645 | 19702 ft | 399 kts | 185° |
| 2026-04-22 15:07 | 53.25221 | 9.50103 | 20282 ft | 401 kts | 185° |
| 2026-04-22 15:08 | 53.22435 | 9.49556 | 20858 ft | 404 kts | 185° |
| 2026-04-22 15:08 | 53.19637 | 9.49004 | 21453 ft | 407 kts | 185° |
| 2026-04-22 15:08 | 53.16803 | 9.48448 | 22037 ft | 410 kts | 185° |
| 2026-04-22 15:08 | 53.13958 | 9.47893 | 22638 ft | 413 kts | 185° |
| 2026-04-22 15:09 | 53.11091 | 9.47335 | 23228 ft | 417 kts | 185° |
| 2026-04-22 15:09 | 53.08201 | 9.46772 | 23823 ft | 420 kts | 185° |
| 2026-04-22 15:09 | 53.05293 | 9.46207 | 24354 ft | 423 kts | 185° |
| 2026-04-22 15:09 | 53.02358 | 9.45637 | 24855 ft | 426 kts | 185° |
| 2026-04-22 15:10 | 52.99407 | 9.45066 | 25359 ft | 429 kts | 185° |
| 2026-04-22 15:10 | 52.96436 | 9.44468 | 25851 ft | 432 kts | 185° |
| 2026-04-22 15:10 | 52.93481 | 9.43830 | 26334 ft | 435 kts | 186° |
| 2026-04-22 15:10 | 52.90470 | 9.43169 | 26826 ft | 438 kts | 186° |
| 2026-04-22 15:11 | 52.87442 | 9.42510 | 27251 ft | 442 kts | 185° |
| 2026-04-22 15:11 | 52.84388 | 9.41853 | 27217 ft | 442 kts | 185° |
| 2026-04-22 15:11 | 52.81332 | 9.41198 | 26743 ft | 442 kts | 185° |
| 2026-04-22 15:11 | 52.78266 | 9.40545 | 25970 ft | 445 kts | 185° |
| 2026-04-22 15:12 | 52.75208 | 9.39894 | 25338 ft | 441 kts | 186° |
| 2026-04-22 15:12 | 52.72172 | 9.39248 | 24628 ft | 437 kts | 186° |
| 2026-04-22 15:12 | 52.69168 | 9.38613 | 23916 ft | 433 kts | 186° |
| 2026-04-22 15:12 | 52.66191 | 9.37983 | 23121 ft | 429 kts | 186° |
| 2026-04-22 15:13 | 52.63248 | 9.37362 | 22336 ft | 425 kts | 186° |
| 2026-04-22 15:13 | 52.60331 | 9.36717 | 21550 ft | 421 kts | 187° |
| 2026-04-22 15:13 | 52.57454 | 9.35969 | 20777 ft | 417 kts | 188° |
| 2026-04-22 15:13 | 52.54606 | 9.35190 | 19989 ft | 414 kts | 188° |
| 2026-04-22 15:14 | 52.51774 | 9.34417 | 19236 ft | 410 kts | 188° |
| 2026-04-22 15:14 | 52.48980 | 9.33666 | 18643 ft | 404 kts | 188° |
| 2026-04-22 15:14 | 52.46199 | 9.32930 | 18296 ft | 406 kts | 188° |
| 2026-04-22 15:14 | 52.43421 | 9.32201 | 18015 ft | 402 kts | 188° |
| 2026-04-22 15:15 | 52.40654 | 9.31478 | 17601 ft | 402 kts | 188° |
| 2026-04-22 15:15 | 52.37906 | 9.30764 | 17023 ft | 398 kts | 188° |
| 2026-04-22 15:15 | 52.35182 | 9.30056 | 16449 ft | 394 kts | 188° |
| 2026-04-22 15:15 | 52.32487 | 9.29356 | 15911 ft | 391 kts | 188° |
| 2026-04-22 15:16 | 52.29847 | 9.28665 | 15445 ft | 390 kts | 188° |
| 2026-04-22 15:16 | 52.27169 | 9.27964 | 15194 ft | 388 kts | 188° |
| 2026-04-22 15:16 | 52.24512 | 9.27268 | 14948 ft | 385 kts | 188° |
| 2026-04-22 15:16 | 52.21867 | 9.26592 | 14700 ft | 384 kts | 187° |
| 2026-04-22 15:17 | 52.19227 | 9.26076 | 14463 ft | 382 kts | 185° |
| 2026-04-22 15:17 | 52.16577 | 9.25634 | 14094 ft | 381 kts | 185° |
| 2026-04-22 15:17 | 52.13964 | 9.25206 | 13592 ft | 371 kts | 185° |
| 2026-04-22 15:17 | 52.11438 | 9.24775 | 13112 ft | 359 kts | 185° |
| 2026-04-22 15:18 | 52.08994 | 9.24344 | 12639 ft | 348 kts | 185° |
| 2026-04-22 15:18 | 52.06623 | 9.23925 | 12175 ft | 338 kts | 185° |
| 2026-04-22 15:18 | 52.04324 | 9.23504 | 11713 ft | 328 kts | 186° |
| 2026-04-22 15:18 | 52.02101 | 9.22965 | 11266 ft | 319 kts | 188° |
| 2026-04-22 15:19 | 51.99945 | 9.22363 | 10810 ft | 310 kts | 189° |
| 2026-04-22 15:19 | 51.97849 | 9.21773 | 10379 ft | 302 kts | 188° |
| 2026-04-22 15:19 | 51.95804 | 9.21207 | 9910 ft | 296 kts | 188° |
| 2026-04-22 15:19 | 51.93768 | 9.20657 | 9424 ft | 297 kts | 188° |
| 2026-04-22 15:20 | 51.92424 | 9.20305 | 9112 ft | 293 kts | 188° |
| 2026-04-22 15:20 | 51.89756 | 9.19903 | 8478 ft | 287 kts | 172° |
| 2026-04-22 15:20 | 51.87887 | 9.20891 | 8025 ft | 281 kts | 148° |
| 2026-04-22 15:20 | 51.86463 | 9.22976 | 7610 ft | 275 kts | 125° |
| 2026-04-22 15:21 | 51.85412 | 9.25561 | 7458 ft | 274 kts | 119° |
| 2026-04-22 15:21 | 51.84432 | 9.28207 | 7321 ft | 274 kts | 119° |
| 2026-04-22 15:21 | 51.83425 | 9.30826 | 7208 ft | 275 kts | 120° |
| 2026-04-22 15:21 | 51.82378 | 9.33354 | 7096 ft | 274 kts | 122° |
| 2026-04-22 15:22 | 51.81283 | 9.35876 | 6949 ft | 273 kts | 123° |
| 2026-04-22 15:22 | 51.80161 | 9.38406 | 6848 ft | 274 kts | 124° |
| 2026-04-22 15:22 | 51.79047 | 9.40903 | 6722 ft | 274 kts | 123° |
| 2026-04-22 15:22 | 51.77942 | 9.43387 | 6580 ft | 272 kts | 123° |
| 2026-04-22 15:23 | 51.76847 | 9.45872 | 6457 ft | 272 kts | 123° |
| 2026-04-22 15:23 | 51.75766 | 9.48304 | 6331 ft | 270 kts | 124° |
| 2026-04-22 15:23 | 51.74682 | 9.50729 | 6200 ft | 271 kts | 124° |
| 2026-04-22 15:23 | 51.73568 | 9.53230 | 6067 ft | 271 kts | 123° |
| 2026-04-22 15:24 | 51.72488 | 9.55652 | 5942 ft | 269 kts | 124° |
| 2026-04-22 15:24 | 51.71401 | 9.58111 | 5809 ft | 270 kts | 124° |
| 2026-04-22 15:24 | 51.70306 | 9.60562 | 5687 ft | 269 kts | 124° |
| 2026-04-22 15:24 | 51.69209 | 9.62994 | 5546 ft | 269 kts | 124° |
| 2026-04-22 15:25 | 51.68118 | 9.65422 | 5439 ft | 267 kts | 125° |
| 2026-04-22 15:25 | 51.67021 | 9.67846 | 5311 ft | 268 kts | 125° |
| 2026-04-22 15:25 | 51.65934 | 9.70266 | 5170 ft | 266 kts | 124° |
| 2026-04-22 15:25 | 51.64861 | 9.72664 | 5095 ft | 260 kts | 124° |
| 2026-04-22 15:26 | 51.63829 | 9.74941 | 5005 ft | 242 kts | 128° |
| 2026-04-22 15:26 | 51.62609 | 9.76628 | 4993 ft | 223 kts | 148° |
| 2026-04-22 15:26 | 51.61173 | 9.77538 | 5002 ft | 229 kts | 163° |
| 2026-04-22 15:26 | 51.59633 | 9.78241 | 4968 ft | 229 kts | 163° |
| 2026-04-22 15:27 | 51.58127 | 9.78962 | 4803 ft | 224 kts | 162° |
| 2026-04-22 15:27 | 51.56629 | 9.79707 | 4697 ft | 228 kts | 162° |
| 2026-04-22 15:27 | 51.55115 | 9.80458 | 4554 ft | 226 kts | 163° |
| 2026-04-22 15:27 | 51.53556 | 9.80694 | 4397 ft | 228 kts | 185° |
| 2026-04-22 15:28 | 51.52018 | 9.80100 | 4275 ft | 228 kts | 196° |
| 2026-04-22 15:28 | 51.50518 | 9.79397 | 4102 ft | 227 kts | 197° |
| 2026-04-22 15:28 | 51.48996 | 9.78702 | 3950 ft | 228 kts | 195° |
| 2026-04-22 15:28 | 51.47458 | 9.78031 | 3798 ft | 229 kts | 196° |
| 2026-04-22 15:29 | 51.45928 | 9.77369 | 3648 ft | 226 kts | 195° |
| 2026-04-22 15:29 | 51.44429 | 9.76720 | 3573 ft | 222 kts | 195° |
| 2026-04-22 15:29 | 51.42959 | 9.76103 | 3524 ft | 214 kts | 195° |
| 2026-04-22 15:30 | 51.40838 | 9.74372 | 3669 ft | 210 kts | 237° |
| 2026-04-22 15:30 | 51.40332 | 9.71362 | 3605 ft | 218 kts | 274° |
| 2026-04-22 15:30 | 51.40456 | 9.68996 | 3474 ft | 207 kts | 279° |
| 2026-04-22 15:30 | 51.40587 | 9.66760 | 3355 ft | 197 kts | 277° |
| 2026-04-22 15:31 | 51.40705 | 9.64634 | 3266 ft | 187 kts | 277° |
| 2026-04-22 15:31 | 51.40813 | 9.62617 | 3192 ft | 175 kts | 278° |
| 2026-04-22 15:31 | 51.40910 | 9.60787 | 3112 ft | 153 kts | 278° |
| 2026-04-22 15:31 | 51.40997 | 9.59167 | 3020 ft | 146 kts | 278° |
| 2026-04-22 15:32 | 51.41085 | 9.57550 | 2857 ft | 141 kts | 278° |
| 2026-04-22 15:32 | 51.41171 | 9.55977 | 2713 ft | 145 kts | 279° |
| 2026-04-22 15:32 | 51.41255 | 9.54391 | 2481 ft | 139 kts | 277° |
| 2026-04-22 15:32 | 51.41333 | 9.52810 | 2306 ft | 143 kts | 278° |
| 2026-04-22 15:33 | 51.41426 | 9.51243 | 2140 ft | 144 kts | 279° |
| 2026-04-22 15:33 | 51.41512 | 9.49660 | 1927 ft | 139 kts | 277° |
| 2026-04-22 15:33 | 51.41580 | 9.48065 | 1742 ft | 144 kts | 275° |
| 2026-04-22 15:33 | 51.41644 | 9.46505 | 1494 ft | 138 kts | 276° |
| 2026-04-22 15:34 | 51.41730 | 9.44971 | 1292 ft | 135 kts | 282° |
| 2026-04-22 15:34 | 51.41865 | 9.43446 | 1084 ft | 141 kts | 279° |
| 2026-04-22 15:34 | 51.41930 | 9.41904 | 960 ft | 140 kts | 275° |
| 2026-04-22 15:34 | 51.42013 | 9.40370 | 846 ft | 136 kts | 276° |
| 2026-04-22 15:35 | 51.42066 | 9.39427 | 853 ft | 113 kts | 275° |
| 2026-04-22 15:35 | 51.42117 | 9.38532 | 847 ft | 68 kts | 275° |
| 2026-04-22 15:35 | 51.42152 | 9.37829 | 848 ft | 57 kts | 275° |
| 2026-04-22 15:35 | 51.42121 | 9.37453 | 858 ft | 21 kts | 213° |
| 2026-04-22 15:36 | 51.42029 | 9.37464 | 869 ft | 9 kts | 138° |
| 2026-04-22 15:36 | 51.42016 | 9.37501 | 870 ft | 0 kts | 111° |
| 2026-04-22 15:36 | 51.42014 | 9.37526 | 870 ft | 6 kts | 99° |
| 2026-04-22 15:36 | 51.42007 | 9.37658 | 868 ft | 17 kts | 95° |
| 2026-04-22 15:37 | 51.41994 | 9.37898 | 866 ft | 24 kts | 95° |
| 2026-04-22 15:37 | 51.41983 | 9.38102 | 865 ft | 4 kts | 95° |
| 2026-04-22 15:37 | 51.41983 | 9.38103 | 865 ft | 0 kts | 95° |
| 2026-04-22 15:38 | 51.41972 | 9.38261 | 865 ft | 21 kts | 97° |
| 2026-04-22 15:38 | 51.41957 | 9.38543 | 855 ft | 26 kts | 94° |
| 2026-04-22 15:39 | 51.41950 | 9.38661 | 849 ft | 9 kts | 95° |
| 2026-04-22 15:39 | 51.41940 | 9.38798 | 854 ft | 13 kts | 101° |
| 2026-04-22 15:39 | 51.41906 | 9.38851 | 857 ft | 7 kts | 158° |
| 2026-04-22 15:39 | 51.41804 | 9.38828 | 869 ft | 12 kts | 192° |
| 2026-04-22 15:40 | 51.41768 | 9.38806 | 870 ft | 3 kts | 214° |
| 2026-04-22 15:40 | 51.41761 | 9.38771 | 870 ft | 1 kts | 259° |
| 2026-04-22 15:40 | 51.41762 | 9.38770 | 870 ft | 0 kts | 262° |